Time;durP1;ratioP1;P1;durP2;ratioP2;P2;SDS_P1;SDS_P2;PMS_P1;PMS_P2;Temp;Humidity;BMP_temperature;BMP_pressure;BME280_temperature;BME280_humidity;BME280_pressure;Samples;Min_cycle;Max_cycle;Signal;HPM_P1;HPM_P2
2021/11/04 00:00:32;;;;;;;23.52;17.95;;;5.80;91.60;;;;;;4997593;28;20030;-78
2021/11/04 00:02:59;;;;;;;22.63;17.98;;;5.80;91.60;;;;;;4999550;28;20471;-72
2021/11/04 00:05:25;;;;;;;20.50;18.23;;;5.80;91.60;;;;;;5001126;28;20042;-76
2021/11/04 00:07:52;;;;;;;22.02;18.00;;;5.70;91.60;;;;;;4999623;28;20414;-77
2021/11/04 00:10:19;;;;;;;21.90;17.75;;;5.70;91.60;;;;;;4999174;28;20034;-74
2021/11/04 00:12:45;;;;;;;24.50;19.67;;;5.60;91.70;;;;;;4999749;28;20034;-76
2021/11/04 00:15:11;;;;;;;23.88;18.70;;;5.60;91.80;;;;;;5001970;28;20052;-74
2021/11/04 00:17:38;;;;;;;22.52;18.15;;;5.60;91.80;;;;;;5000458;28;20044;-74
2021/11/04 00:20:05;;;;;;;23.92;18.50;;;5.60;91.80;;;;;;4997511;28;20064;-78
2021/11/04 00:22:31;;;;;;;23.92;19.10;;;5.60;91.80;;;;;;5000290;28;20026;-78
2021/11/04 00:24:57;;;;;;;22.23;18.35;;;5.50;91.80;;;;;;5001129;28;20040;-73
2021/11/04 00:27:22;;;;;;;21.83;18.30;;;5.60;91.80;;;;;;5000084;28;20043;-72
2021/11/04 00:29:48;;;;;;;23.30;19.05;;;5.50;91.90;;;;;;5000374;28;20092;-72
2021/11/04 00:32:14;;;;;;;22.58;18.42;;;5.50;91.90;;;;;;4998375;28;20100;-72
2021/11/04 00:34:40;;;;;;;21.40;18.50;;;5.40;91.90;;;;;;4999076;28;22063;-72
2021/11/04 00:37:06;;;;;;;21.98;18.45;;;5.40;91.90;;;;;;4999302;28;20124;-75
2021/11/04 00:39:31;;;;;;;25.73;20.83;;;5.40;91.90;;;;;;4996695;28;20041;-77
2021/11/04 00:41:57;;;;;;;24.27;18.70;;;5.40;91.90;;;;;;5003213;28;20030;-74
2021/11/04 00:44:23;;;;;;;22.42;17.60;;;5.30;92.00;;;;;;4999760;28;20034;-72
2021/11/04 00:46:48;;;;;;;22.30;18.17;;;5.30;92.00;;;;;;4999873;28;20438;-72
2021/11/04 00:49:14;;;;;;;23.13;19.15;;;5.30;92.00;;;;;;4998896;28;20034;-75
2021/11/04 00:51:40;;;;;;;25.10;19.05;;;5.30;92.00;;;;;;4995403;28;21380;-73
2021/11/04 00:54:06;;;;;;;22.55;18.05;;;5.20;92.00;;;;;;4998801;28;20037;-77
2021/11/04 00:56:31;;;;;;;23.20;18.65;;;5.20;92.00;;;;;;4999114;28;20103;-72
2021/11/04 00:58:57;;;;;;;25.88;19.65;;;5.20;92.00;;;;;;4997786;28;20050;-75
2021/11/04 01:01:23;;;;;;;26.33;22.13;;;5.20;92.00;;;;;;5002297;28;20480;-76
2021/11/04 01:03:51;;;;;;;23.40;19.30;;;5.20;92.00;;;;;;4998975;28;20057;-74
2021/11/04 01:06:20;;;;;;;24.95;19.98;;;5.20;92.10;;;;;;4998383;28;20057;-72
2021/11/04 01:08:45;;;;;;;26.58;21.92;;;5.10;92.10;;;;;;4998933;28;20041;-73
2021/11/04 01:11:11;;;;;;;26.80;20.55;;;5.10;92.10;;;;;;5016090;28;20036;-73
2021/11/04 01:13:38;;;;;;;25.20;20.15;;;5.10;92.10;;;;;;4997791;28;20033;-73
2021/11/04 01:16:04;;;;;;;25.60;21.75;;;5.10;92.10;;;;;;5007692;28;20057;-73
2021/11/04 01:18:30;;;;;;;24.40;20.92;;;5.00;92.10;;;;;;5007453;28;20473;-72
2021/11/04 01:20:56;;;;;;;28.27;22.73;;;5.10;92.20;;;;;;5023447;28;20037;-73
2021/11/04 01:23:22;;;;;;;25.13;21.65;;;5.00;92.20;;;;;;4996951;28;20037;-76
2021/11/04 01:25:48;;;;;;;27.40;21.52;;;5.00;92.20;;;;;;4998052;28;20046;-75
2021/11/04 01:28:15;;;;;;;26.40;20.92;;;4.90;92.30;;;;;;4997577;28;20527;-73
2021/11/04 01:30:41;;;;;;;24.17;19.80;;;4.90;92.20;;;;;;5000695;28;20030;-73
2021/11/04 01:33:07;;;;;;;25.48;19.88;;;4.90;92.30;;;;;;4997770;28;20439;-77
2021/11/04 01:35:33;;;;;;;25.33;21.00;;;4.80;92.30;;;;;;4999878;28;20061;-73
2021/11/04 01:38:00;;;;;;;25.40;20.23;;;4.90;92.30;;;;;;5005959;28;20465;-73
2021/11/04 01:40:27;;;;;;;23.67;21.02;;;4.90;92.40;;;;;;5001198;28;20133;-72
2021/11/04 01:42:52;;;;;;;25.85;21.30;;;4.90;92.40;;;;;;4998363;28;20132;-72
2021/11/04 01:45:18;;;;;;;25.75;22.27;;;4.80;92.30;;;;;;4998259;28;20552;-73
2021/11/04 01:47:46;;;;;;;27.13;21.83;;;4.80;92.30;;;;;;4998590;28;20132;-75
2021/11/04 01:50:23;;;;;;;24.83;21.02;;;4.80;92.30;;;;;;4997173;28;20037;-73
2021/11/04 01:52:49;;;;;;;24.17;19.85;;;4.70;92.30;;;;;;4999848;28;20061;-73
2021/11/04 01:55:23;;;;;;;26.98;21.45;;;4.70;92.30;;;;;;4997749;28;20400;-75
2021/11/04 01:57:50;;;;;;;25.48;22.02;;;4.70;92.20;;;;;;4997440;28;20492;-73
2021/11/04 02:00:22;;;;;;;24.90;21.33;;;4.70;92.30;;;;;;5020878;28;20483;-74
2021/11/04 02:03:25;;;;;;;26.42;22.67;;;4.60;92.30;;;;;;4996800;28;20508;-73
2021/11/04 02:06:01;;;;;;;28.60;22.42;;;4.60;92.30;;;;;;4997326;28;20033;-76
2021/11/04 02:09:03;;;;;;;27.05;21.73;;;4.60;92.30;;;;;;5002534;28;20080;-73
2021/11/04 02:11:35;;;;;;;28.63;24.33;;;4.60;92.30;;;;;;5011983;28;20446;-73
2021/11/04 02:14:22;;;;;;;28.95;23.35;;;4.60;92.30;;;;;;4999659;28;20065;-73
2021/11/04 02:16:49;;;;;;;30.10;24.17;;;4.50;92.30;;;;;;4998277;28;20041;-72
2021/11/04 02:19:41;;;;;;;27.83;23.70;;;4.60;92.30;;;;;;4996214;28;20080;-77
2021/11/04 02:22:28;;;;;;;31.50;25.60;;;4.60;92.30;;;;;;4997425;28;20038;-75
2021/11/04 02:25:15;;;;;;;29.20;23.65;;;4.60;92.20;;;;;;5000813;28;20038;-75
2021/11/04 02:27:44;;;;;;;30.20;24.38;;;4.50;92.30;;;;;;5014202;28;20097;-72
2021/11/04 02:30:11;;;;;;;28.35;23.02;;;4.50;92.20;;;;;;4995442;28;20038;-73
2021/11/04 02:32:37;;;;;;;29.75;24.73;;;4.50;92.20;;;;;;4998040;28;20026;-72
2021/11/04 02:35:04;;;;;;;27.83;24.20;;;4.50;92.20;;;;;;5002440;28;20026;-72
2021/11/04 02:37:31;;;;;;;30.05;25.45;;;4.50;92.20;;;;;;4998910;28;20401;-75
2021/11/04 02:39:58;;;;;;;32.17;25.30;;;4.50;92.20;;;;;;4999843;28;20038;-73
2021/11/04 02:42:24;;;;;;;28.92;22.85;;;4.40;92.20;;;;;;4996066;28;20131;-73
2021/11/04 02:44:50;;;;;;;29.00;23.90;;;4.40;92.20;;;;;;5015859;28;20702;-73
2021/11/04 02:47:16;;;;;;;29.73;24.33;;;4.40;92.20;;;;;;4996468;28;20018;-72
2021/11/04 02:49:45;;;;;;;32.30;26.02;;;4.30;92.20;;;;;;4996888;28;20072;-73
2021/11/04 02:52:11;;;;;;;31.25;24.88;;;4.30;92.10;;;;;;5003469;28;20084;-72
2021/11/04 02:54:37;;;;;;;32.58;27.50;;;4.30;92.30;;;;;;5013586;28;20165;-79
2021/11/04 02:57:03;;;;;;;36.15;27.35;;;4.30;92.30;;;;;;4996810;28;20471;-72
2021/11/04 02:59:29;;;;;;;32.92;26.98;;;4.30;92.30;;;;;;4998361;28;20109;-73
2021/11/04 03:01:58;;;;;;;31.70;25.10;;;4.30;92.30;;;;;;4997369;28;20034;-72
2021/11/04 03:04:24;;;;;;;35.95;29.10;;;4.40;92.40;;;;;;5003514;28;20030;-72
2021/11/04 03:06:50;;;;;;;34.92;28.98;;;4.40;92.30;;;;;;5000358;28;20041;-72
2021/11/04 03:09:18;;;;;;;38.17;29.10;;;4.40;92.30;;;;;;5000387;28;20061;-73
2021/11/04 03:11:44;;;;;;;38.85;32.85;;;4.40;92.30;;;;;;5003074;28;20591;-75
2021/11/04 03:14:10;;;;;;;40.42;32.22;;;4.40;92.30;;;;;;5007750;28;20034;-74
2021/11/04 03:16:43;;;;;;;40.05;31.27;;;4.50;92.40;;;;;;5000364;28;20080;-72
2021/11/04 03:19:12;;;;;;;38.15;29.70;;;4.50;92.40;;;;;;5002890;28;20046;-72
2021/11/04 03:21:42;;;;;;;35.03;28.42;;;4.60;92.50;;;;;;5003282;28;20034;-72
2021/11/04 03:24:08;;;;;;;39.50;29.52;;;4.60;92.40;;;;;;5000602;28;20540;-72
2021/11/04 03:26:38;;;;;;;36.63;27.35;;;4.60;92.30;;;;;;5000508;28;20085;-77
2021/11/04 03:29:05;;;;;;;43.30;30.38;;;4.60;92.40;;;;;;5001261;28;20052;-75
2021/11/04 03:31:36;;;;;;;42.55;30.15;;;4.60;92.40;;;;;;5000643;28;20060;-72
2021/11/04 03:34:03;;;;;;;36.13;28.65;;;4.60;92.50;;;;;;5018528;28;20105;-75
2021/11/04 03:36:30;;;;;;;39.15;29.80;;;4.70;92.50;;;;;;5000665;28;20041;-74
2021/11/04 03:38:56;;;;;;;39.92;30.90;;;4.70;92.40;;;;;;5004739;28;20038;-74
2021/11/04 03:41:22;;;;;;;38.08;28.75;;;4.70;92.50;;;;;;5000041;28;20136;-72
2021/11/04 03:43:50;;;;;;;43.65;28.88;;;4.70;92.40;;;;;;5003000;28;20038;-72
2021/11/04 03:46:17;;;;;;;40.60;28.10;;;4.80;92.50;;;;;;5004684;28;20122;-72
2021/11/04 03:48:43;;;;;;;44.45;30.75;;;4.90;92.50;;;;;;5000141;28;20049;-72
2021/11/04 03:51:10;;;;;;;44.17;29.42;;;4.90;92.40;;;;;;4998583;28;20457;-73
2021/11/04 03:53:37;;;;;;;44.33;29.55;;;4.90;92.30;;;;;;5002803;28;20046;-75
2021/11/04 03:56:03;;;;;;;41.42;27.90;;;4.90;92.20;;;;;;5000635;28;20034;-73
2021/11/04 03:58:29;;;;;;;42.95;29.17;;;4.90;92.20;;;;;;5000607;28;20068;-76
2021/11/04 04:00:56;;;;;;;44.75;28.48;;;4.90;92.30;;;;;;5014605;28;20031;-72
2021/11/04 04:03:22;;;;;;;41.33;28.27;;;4.90;92.20;;;;;;5009152;28;20393;-72
2021/11/04 04:06:07;;;;;;;38.35;26.92;;;4.90;92.10;;;;;;5008497;28;20030;-72
2021/11/04 04:08:34;;;;;;;39.37;27.37;;;4.80;92.10;;;;;;5005140;28;20049;-73
2021/11/04 04:11:00;;;;;;;43.55;28.15;;;4.80;92.10;;;;;;5007268;28;20045;-73
2021/11/04 04:13:26;;;;;;;44.22;27.88;;;4.80;92.30;;;;;;5009358;28;20030;-72
2021/11/04 04:15:51;;;;;;;40.40;27.73;;;4.80;92.30;;;;;;5008296;28;20377;-73
2021/11/04 04:18:17;;;;;;;40.75;28.63;;;4.80;92.40;;;;;;4997345;28;20070;-73
2021/11/04 04:20:43;;;;;;;42.65;29.98;;;4.80;92.40;;;;;;4996232;28;20117;-74
2021/11/04 04:23:09;;;;;;;43.70;28.75;;;4.90;92.50;;;;;;4999310;28;20458;-75
2021/11/04 04:25:34;;;;;;;39.20;27.30;;;4.90;92.40;;;;;;5000244;28;20573;-73
2021/11/04 04:28:00;;;;;;;39.20;28.65;;;4.90;92.40;;;;;;4998507;28;20410;-72
2021/11/04 04:30:26;;;;;;;41.58;29.20;;;4.90;92.40;;;;;;4997671;28;20403;-73
2021/11/04 04:32:52;;;;;;;37.55;28.13;;;4.90;92.40;;;;;;4999079;28;20034;-73
2021/11/04 04:35:18;;;;;;;39.15;27.58;;;4.90;92.50;;;;;;5001038;28;20034;-77
2021/11/04 04:37:44;;;;;;;34.15;26.58;;;5.00;92.60;;;;;;5000270;28;20052;-76
2021/11/04 04:40:10;;;;;;;38.17;28.98;;;5.00;92.60;;;;;;4999007;28;20048;-73
2021/11/04 04:42:37;;;;;;;39.78;28.92;;;5.10;92.60;;;;;;4999979;28;20496;-72
2021/11/04 04:45:07;;;;;;;37.47;27.42;;;5.10;92.60;;;;;;5003037;28;20096;-75
2021/11/04 04:47:34;;;;;;;35.03;26.92;;;5.10;92.60;;;;;;5000716;28;20038;-76
2021/11/04 04:49:59;;;;;;;34.08;25.88;;;5.10;92.60;;;;;;4997920;28;20755;-73
2021/11/04 04:52:27;;;;;;;35.63;27.35;;;5.10;92.70;;;;;;4999687;28;20092;-72
2021/11/04 04:54:52;;;;;;;35.35;28.27;;;5.10;92.70;;;;;;5000449;28;20030;-74
2021/11/04 04:57:22;;;;;;;35.92;28.08;;;5.20;92.60;;;;;;4998210;28;21122;-72
2021/11/04 04:59:52;;;;;;;33.85;26.52;;;5.10;92.60;;;;;;4999320;28;20044;-73
2021/11/04 05:02:19;;;;;;;34.00;26.90;;;5.10;92.60;;;;;;4997439;28;20049;-73
2021/11/04 05:04:45;;;;;;;36.47;26.83;;;5.10;92.60;;;;;;4998301;28;20033;-77
2021/11/04 05:07:10;;;;;;;30.50;24.50;;;5.00;92.60;;;;;;4999827;28;20042;-77
2021/11/04 05:09:37;;;;;;;34.25;25.48;;;5.00;92.60;;;;;;5003739;28;20048;-73
2021/11/04 05:12:03;;;;;;;31.23;25.05;;;4.90;92.60;;;;;;5009805;28;20111;-75
2021/11/04 05:14:29;;;;;;;31.80;24.35;;;4.90;92.70;;;;;;4999732;28;20025;-73
2021/11/04 05:16:55;;;;;;;33.88;25.38;;;4.80;92.70;;;;;;5000069;28;20107;-73
2021/11/04 05:19:20;;;;;;;33.10;25.15;;;4.80;92.80;;;;;;4999011;28;20641;-73
2021/11/04 05:21:46;;;;;;;33.50;24.20;;;4.80;92.80;;;;;;5000051;28;20021;-72
2021/11/04 05:24:12;;;;;;;30.65;24.13;;;4.80;92.90;;;;;;4995821;28;20347;-73
2021/11/04 05:26:38;;;;;;;30.75;23.45;;;4.80;93.00;;;;;;4999432;28;20037;-73
2021/11/04 05:29:04;;;;;;;29.90;23.90;;;4.80;93.00;;;;;;4999911;28;20117;-74
2021/11/04 05:31:30;;;;;;;31.45;24.63;;;4.70;93.10;;;;;;4997908;28;20099;-73
2021/11/04 05:33:56;;;;;;;35.70;24.42;;;4.80;93.10;;;;;;5004723;28;20421;-73
2021/11/04 05:36:23;;;;;;;35.90;26.20;;;4.80;93.10;;;;;;5000599;28;20415;-75
2021/11/04 05:38:49;;;;;;;34.50;26.00;;;4.80;93.20;;;;;;4998887;28;20667;-76
2021/11/04 05:41:15;;;;;;;33.42;25.65;;;4.80;93.30;;;;;;4999316;28;20480;-73
2021/11/04 05:43:41;;;;;;;32.90;26.05;;;4.90;93.40;;;;;;5000649;28;20073;-73
2021/11/04 05:46:07;;;;;;;33.15;24.38;;;4.90;93.30;;;;;;4999198;28;20066;-73
2021/11/04 05:48:32;;;;;;;33.95;25.27;;;4.90;93.30;;;;;;5000170;28;20342;-74
2021/11/04 05:50:58;;;;;;;31.38;24.15;;;5.00;93.30;;;;;;5000282;28;20033;-72
2021/11/04 05:53:24;;;;;;;31.10;23.77;;;5.00;93.20;;;;;;4996640;28;20022;-73
2021/11/04 05:55:51;;;;;;;31.98;24.55;;;5.00;93.10;;;;;;5000790;28;20038;-76
2021/11/04 05:58:17;;;;;;;35.17;25.50;;;5.00;93.10;;;;;;5003229;28;20040;-73
2021/11/04 06:00:43;;;;;;;32.92;25.27;;;5.00;93.20;;;;;;5000043;28;20038;-72
2021/11/04 06:03:08;;;;;;;35.58;26.13;;;5.00;93.10;;;;;;4996631;28;20053;-74
2021/11/04 06:05:34;;;;;;;32.80;25.17;;;5.00;93.20;;;;;;4994607;28;20042;-72
2021/11/04 06:08:00;;;;;;;32.58;26.42;;;5.10;93.20;;;;;;4998269;28;20030;-72
2021/11/04 06:10:25;;;;;;;35.80;27.40;;;5.10;93.20;;;;;;4997135;28;20033;-73
2021/11/04 06:12:51;;;;;;;31.85;24.67;;;5.10;93.20;;;;;;4998433;28;20532;-72
2021/11/04 06:15:17;;;;;;;32.28;25.33;;;5.10;93.20;;;;;;4997855;28;20520;-74
2021/11/04 06:17:43;;;;;;;31.92;24.20;;;5.10;93.20;;;;;;4996766;28;20505;-73
2021/11/04 06:20:09;;;;;;;33.17;26.08;;;5.20;93.20;;;;;;4997554;28;20474;-74
2021/11/04 06:22:35;;;;;;;34.78;25.25;;;5.20;93.20;;;;;;4999377;28;20053;-72
2021/11/04 06:25:00;;;;;;;32.80;24.40;;;5.20;93.20;;;;;;4996543;28;20072;-75
2021/11/04 06:27:26;;;;;;;31.70;23.52;;;5.30;93.10;;;;;;4997203;28;20030;-76
2021/11/04 06:29:52;;;;;;;35.03;27.38;;;5.30;93.10;;;;;;5011046;28;20068;-73
2021/11/04 06:32:18;;;;;;;35.60;27.23;;;5.30;93.10;;;;;;4995630;28;20070;-75
2021/11/04 06:34:43;;;;;;;34.10;25.92;;;5.20;93.10;;;;;;5015261;28;20038;-77
2021/11/04 06:37:09;;;;;;;32.83;23.75;;;5.30;93.10;;;;;;4998082;28;20053;-73
2021/11/04 06:39:35;;;;;;;30.05;22.73;;;5.30;93.20;;;;;;5001023;28;20173;-73
2021/11/04 06:42:00;;;;;;;30.92;22.80;;;5.30;93.20;;;;;;5002753;28;20108;-72
2021/11/04 06:44:26;;;;;;;30.15;23.52;;;5.30;93.10;;;;;;5004950;28;20065;-73
2021/11/04 06:46:57;;;;;;;32.05;23.58;;;5.30;93.20;;;;;;5000420;28;20416;-73
2021/11/04 06:49:25;;;;;;;30.67;23.20;;;5.30;93.20;;;;;;5002210;28;20564;-73
2021/11/04 06:51:52;;;;;;;31.27;22.58;;;5.30;93.20;;;;;;5002776;28;20092;-74
2021/11/04 06:54:17;;;;;;;34.20;23.90;;;5.30;93.30;;;;;;5005833;28;20038;-73
2021/11/04 06:56:47;;;;;;;31.10;24.10;;;5.30;93.40;;;;;;5011668;28;20520;-73
2021/11/04 06:59:25;;;;;;;35.30;25.60;;;5.30;93.40;;;;;;5008256;28;20038;-76
2021/11/04 07:01:56;;;;;;;33.38;24.73;;;5.40;93.40;;;;;;5019063;28;20038;-73
2021/11/04 07:04:49;;;;;;;33.22;25.23;;;5.40;93.40;;;;;;5012101;28;20122;-73
2021/11/04 07:07:18;;;;;;;33.08;24.40;;;5.50;93.50;;;;;;5003734;28;20089;-73
2021/11/04 07:09:43;;;;;;;33.20;25.13;;;5.60;93.50;;;;;;5010320;28;20049;-73
2021/11/04 07:12:12;;;;;;;32.45;24.65;;;5.60;93.50;;;;;;5008253;28;20030;-76
2021/11/04 07:14:39;;;;;;;33.38;25.67;;;5.60;93.40;;;;;;5011041;28;20339;-73
2021/11/04 07:17:06;;;;;;;40.63;26.85;;;5.70;93.40;;;;;;5023326;28;20038;-74
2021/11/04 07:19:33;;;;;;;29.13;23.40;;;5.80;93.40;;;;;;5011065;28;20153;-75
2021/11/04 07:22:05;;;;;;;34.53;26.48;;;5.80;93.40;;;;;;5024175;28;20042;-73
2021/11/04 07:24:38;;;;;;;33.47;24.02;;;5.80;93.40;;;;;;5002271;28;20125;-73
2021/11/04 07:27:21;;;;;;;35.45;25.67;;;5.90;93.40;;;;;;5006578;28;20045;-73
2021/11/04 07:29:50;;;;;;;33.10;25.90;;;6.00;93.30;;;;;;5011352;28;20053;-73
2021/11/04 07:32:17;;;;;;;32.72;24.33;;;6.00;93.30;;;;;;5007568;28;20030;-72
2021/11/04 07:34:44;;;;;;;32.97;25.30;;;6.10;93.30;;;;;;5008154;28;20040;-72
2021/11/04 07:37:12;;;;;;;35.35;27.05;;;6.10;93.20;;;;;;5009170;28;20438;-72
2021/11/04 07:39:39;;;;;;;32.78;24.73;;;6.20;93.20;;;;;;5024058;28;20084;-74
2021/11/04 07:42:08;;;;;;;29.33;23.10;;;6.30;93.20;;;;;;5009101;28;20045;-71
2021/11/04 07:44:35;;;;;;;30.80;23.17;;;6.40;93.20;;;;;;5007819;28;20068;-73
2021/11/04 07:47:04;;;;;;;30.13;24.40;;;6.50;93.20;;;;;;5006436;28;20034;-75
2021/11/04 07:49:29;;;;;;;31.55;25.77;;;6.60;93.10;;;;;;5008873;28;20048;-76
2021/11/04 07:52:00;;;;;;;33.28;25.90;;;6.70;93.10;;;;;;5007736;28;20038;-72
2021/11/04 07:54:32;;;;;;;33.95;26.83;;;6.80;93.00;;;;;;5006145;28;20516;-73
2021/11/04 07:56:58;;;;;;;32.45;25.70;;;7.00;93.00;;;;;;5007119;28;20034;-74
2021/11/04 07:59:27;;;;;;;32.33;25.65;;;7.00;92.90;;;;;;5009293;28;20473;-72
2021/11/04 08:01:55;;;;;;;33.97;25.58;;;7.10;92.60;;;;;;5005272;28;20459;-74
2021/11/04 08:04:20;;;;;;;34.42;27.10;;;7.10;92.60;;;;;;5007555;28;20567;-72
2021/11/04 08:06:46;;;;;;;32.97;25.55;;;7.10;92.70;;;;;;5009102;28;20026;-75
2021/11/04 08:09:12;;;;;;;30.17;23.38;;;7.20;92.60;;;;;;5004801;28;20042;-73
2021/11/04 08:11:37;;;;;;;28.85;23.00;;;7.30;92.70;;;;;;5008790;28;20038;-72
2021/11/04 08:14:03;;;;;;;28.35;21.17;;;7.40;92.60;;;;;;5005631;28;20433;-72
2021/11/04 08:16:29;;;;;;;28.08;20.65;;;7.50;92.50;;;;;;5011291;28;20048;-72
2021/11/04 08:18:55;;;;;;;26.88;19.52;;;7.50;92.70;;;;;;5008230;28;20120;-73
2021/11/04 08:21:20;;;;;;;25.05;18.42;;;7.60;92.80;;;;;;5013224;28;20037;-69
2021/11/04 08:23:46;;;;;;;24.20;17.35;;;7.60;92.90;;;;;;5009461;28;20037;-70
2021/11/04 08:26:14;;;;;;;27.23;17.05;;;7.70;93.00;;;;;;5003876;28;20133;-69
2021/11/04 08:28:40;;;;;;;24.40;14.80;;;7.80;93.00;;;;;;5006822;28;20129;-70
2021/11/04 08:31:06;;;;;;;17.80;13.57;;;8.10;93.20;;;;;;5005783;28;20113;-76
2021/11/04 08:33:32;;;;;;;18.20;12.27;;;8.30;93.10;;;;;;5008236;28;20388;-69
2021/11/04 08:35:58;;;;;;;20.75;12.15;;;8.50;93.10;;;;;;5008991;28;20030;-69
2021/11/04 08:38:24;;;;;;;19.10;9.88;;;8.70;92.80;;;;;;5003691;28;21426;-69
2021/11/04 08:40:49;;;;;;;13.38;7.63;;;8.80;92.70;;;;;;5004692;28;20045;-69
2021/11/04 08:43:15;;;;;;;10.75;7.00;;;8.80;92.40;;;;;;5006680;28;20036;-69
2021/11/04 08:45:41;;;;;;;10.65;4.80;;;8.90;92.30;;;;;;5009393;28;20033;-69
2021/11/04 08:48:07;;;;;;;6.90;4.07;;;9.00;91.90;;;;;;5005820;28;20435;-70
2021/11/04 08:50:32;;;;;;;7.15;4.13;;;9.00;91.30;;;;;;5009665;28;20048;-70
2021/11/04 08:52:58;;;;;;;7.10;4.13;;;9.00;91.10;;;;;;5021674;28;20037;-69
2021/11/04 08:55:24;;;;;;;7.45;3.83;;;9.10;91.00;;;;;;5008080;28;20033;-68
2021/11/04 08:57:56;;;;;;;7.10;3.65;;;9.20;90.60;;;;;;5005248;28;20069;-69
2021/11/04 09:00:22;;;;;;;6.93;3.70;;;9.40;90.60;;;;;;5007149;28;20088;-67
2021/11/04 09:02:48;;;;;;;7.40;3.67;;;9.60;90.30;;;;;;5007098;28;20034;-70
2021/11/04 09:05:15;;;;;;;9.90;3.50;;;9.70;89.20;;;;;;5010379;28;20041;-74
2021/11/04 09:07:41;;;;;;;12.98;4.85;;;9.70;89.10;;;;;;5010806;28;20497;-69
2021/11/04 09:10:12;;;;;;;14.52;4.53;;;9.70;88.70;;;;;;5006417;28;20046;-70
2021/11/04 09:12:39;;;;;;;12.45;3.92;;;9.70;88.60;;;;;;5022334;28;20469;-68
2021/11/04 09:15:07;;;;;;;7.35;3.85;;;9.60;88.60;;;;;;5022293;28;20087;-74
2021/11/04 09:17:33;;;;;;;5.88;3.22;;;9.70;88.80;;;;;;5006533;28;20068;-69
2021/11/04 09:19:59;;;;;;;7.80;3.55;;;9.80;88.80;;;;;;5006572;28;20636;-69
2021/11/04 09:22:25;;;;;;;7.75;3.53;;;9.80;88.40;;;;;;5003128;28;20121;-71
2021/11/04 09:24:51;;;;;;;9.25;3.80;;;9.90;88.80;;;;;;5007169;28;20116;-73
2021/11/04 09:27:16;;;;;;;5.82;3.15;;;10.00;88.70;;;;;;5019557;28;20143;-70
2021/11/04 09:29:43;;;;;;;13.05;3.20;;;10.00;88.60;;;;;;5009926;28;20690;-69
2021/11/04 09:32:10;;;;;;;7.07;2.50;;;10.10;88.30;;;;;;5014407;28;20531;-73
2021/11/04 09:34:35;;;;;;;13.45;5.40;;;10.10;87.60;;;;;;5024623;28;20049;-69
2021/11/04 09:37:05;;;;;;;15.85;6.20;;;10.20;87.00;;;;;;5006298;28;20411;-71
2021/11/04 09:39:32;;;;;;;8.55;3.63;;;10.20;86.50;;;;;;5004752;28;20477;-71
2021/11/04 09:41:58;;;;;;;10.05;3.67;;;10.50;86.00;;;;;;5006805;28;20030;-71
2021/11/04 09:44:24;;;;;;;4.32;2.50;;;10.60;84.80;;;;;;5003180;28;20698;-70
2021/11/04 09:46:50;;;;;;;4.63;1.88;;;10.90;84.20;;;;;;5023708;28;20106;-71
2021/11/04 09:49:16;;;;;;;5.57;2.45;;;11.10;82.70;;;;;;5008287;28;20081;-70
2021/11/04 09:51:42;;;;;;;4.47;2.20;;;11.20;81.20;;;;;;5012269;28;20026;-71
2021/11/04 09:54:08;;;;;;;4.63;1.77;;;11.30;81.50;;;;;;5006561;28;20037;-74
2021/11/04 09:56:35;;;;;;;5.40;2.22;;;11.40;80.90;;;;;;5004922;28;20057;-70
2021/11/04 09:59:01;;;;;;;5.38;2.20;;;11.40;80.90;;;;;;5003156;28;20465;-71
2021/11/04 10:01:32;;;;;;;4.90;2.42;;;11.60;81.40;;;;;;5002673;28;20031;-74
2021/11/04 10:04:00;;;;;;;7.43;2.28;;;11.80;81.00;;;;;;5006394;28;20042;-71
2021/11/04 10:06:32;;;;;;;5.40;2.67;;;11.80;80.40;;;;;;5007015;28;20034;-70
2021/11/04 10:09:03;;;;;;;7.03;2.92;;;11.90;79.90;;;;;;5006620;28;20092;-70
2021/11/04 10:11:30;;;;;;;6.18;2.72;;;11.80;79.40;;;;;;5012893;28;20500;-70
2021/11/04 10:14:10;;;;;;;5.05;2.30;;;11.90;80.70;;;;;;5023742;28;20073;-71
2021/11/04 10:16:36;;;;;;;7.25;2.85;;;12.00;80.60;;;;;;5004935;28;20041;-70
2021/11/04 10:19:13;;;;;;;5.65;2.35;;;11.90;79.90;;;;;;5009079;28;20474;-71
2021/11/04 10:21:42;;;;;;;4.18;2.55;;;11.70;80.10;;;;;;5006245;28;20117;-71
2021/11/04 10:24:22;;;;;;;4.95;1.98;;;11.70;79.10;;;;;;5005768;28;20057;-74
2021/11/04 10:26:55;;;;;;;4.40;1.92;;;11.60;79.20;;;;;;5003820;28;20030;-70
2021/11/04 10:29:26;;;;;;;7.15;2.90;;;11.70;79.80;;;;;;5005388;28;20054;-71
2021/11/04 10:32:00;;;;;;;6.28;2.97;;;11.60;79.90;;;;;;5004884;28;20042;-72
2021/11/04 10:34:30;;;;;;;4.95;2.75;;;11.60;80.50;;;;;;5006745;28;20030;-71
2021/11/04 10:37:16;;;;;;;7.70;3.03;;;11.70;80.30;;;;;;5017844;28;20049;-71
2021/11/04 10:39:42;;;;;;;5.97;2.70;;;11.70;80.40;;;;;;5019974;28;20041;-71
2021/11/04 10:42:08;;;;;;;5.10;2.42;;;11.50;80.50;;;;;;5022499;28;20488;-70
2021/11/04 10:44:35;;;;;;;8.32;3.15;;;11.30;80.80;;;;;;5003515;28;20046;-71
2021/11/04 10:47:01;;;;;;;8.98;4.57;;;11.30;80.80;;;;;;5004322;28;20054;-73
2021/11/04 10:49:43;;;;;;;19.92;4.28;;;11.40;81.10;;;;;;5006243;28;20087;-72
2021/11/04 10:52:10;;;;;;;9.02;4.90;;;11.30;80.80;;;;;;5008364;28;20030;-73
2021/11/04 10:54:47;;;;;;;7.45;3.55;;;11.20;80.80;;;;;;5009029;28;20042;-75
2021/11/04 10:57:13;;;;;;;6.18;3.08;;;11.30;81.40;;;;;;5005729;28;20033;-70
2021/11/04 10:59:48;;;;;;;5.82;3.33;;;11.30;81.20;;;;;;5012941;28;20488;-71
2021/11/04 11:02:14;;;;;;;8.63;3.55;;;11.30;81.60;;;;;;5000759;28;20432;-70
2021/11/04 11:04:40;;;;;;;11.75;3.72;;;11.40;81.40;;;;;;5003755;28;20049;-71
2021/11/04 11:07:06;;;;;;;8.90;3.63;;;11.40;81.80;;;;;;5004785;28;20038;-72
2021/11/04 11:09:37;;;;;;;7.75;3.10;;;11.50;81.30;;;;;;5005015;28;20050;-74
2021/11/04 11:12:05;;;;;;;6.00;2.58;;;11.50;81.20;;;;;;5003127;28;20044;-70
2021/11/04 11:14:40;;;;;;;7.05;2.70;;;11.50;81.00;;;;;;5004398;28;20134;-71
2021/11/04 11:17:06;;;;;;;;;;;11.50;80.80;;;;;;5006145;28;20416;-70
2021/11/04 11:19:33;;;;;;;7.97;2.65;;;11.60;81.10;;;;;;5019072;28;20476;-71
2021/11/04 11:21:59;;;;;;;6.22;2.45;;;11.70;81.20;;;;;;5004019;28;20030;-76
2021/11/04 11:24:25;;;;;;;7.72;3.17;;;11.90;81.20;;;;;;5006840;28;20863;-70
2021/11/04 11:26:52;;;;;;;6.18;3.03;;;11.90;81.30;;;;;;5008414;28;20034;-70
2021/11/04 11:29:17;;;;;;;6.40;2.40;;;11.70;81.70;;;;;;5022181;28;20054;-70
2021/11/04 11:31:54;;;;;;;4.85;2.38;;;11.60;81.40;;;;;;5011773;28;20061;-71
2021/11/04 11:34:36;;;;;;;5.07;2.00;;;11.60;81.60;;;;;;5006962;28;20116;-70
2021/11/04 11:37:14;;;;;;;6.53;2.33;;;11.60;81.30;;;;;;5020420;28;20029;-74
2021/11/04 11:40:14;;;;;;;4.70;1.88;;;11.50;81.50;;;;;;5003992;28;20038;-70
2021/11/04 11:42:59;;;;;;;4.53;1.98;;;11.50;81.40;;;;;;5006062;28;20409;-71
2021/11/04 11:45:30;;;;;;;5.82;2.53;;;11.40;81.80;;;;;;5005413;28;20076;-70
2021/11/04 11:48:23;;;;;;;7.18;2.10;;;11.40;82.50;;;;;;5007534;28;20034;-72
2021/11/04 11:50:52;;;;;;;9.13;3.28;;;11.30;82.60;;;;;;5006123;28;20049;-71
2021/11/04 11:53:26;;;;;;;3.65;2.50;;;11.30;83.20;;;;;;5007391;28;20053;-71
2021/11/04 11:55:57;;;;;;;7.38;2.30;;;11.20;83.00;;;;;;5006726;28;20125;-70
2021/11/04 11:58:38;;;;;;;6.57;2.45;;;11.20;83.30;;;;;;5004470;28;20040;-70
2021/11/04 12:01:12;;;;;;;8.25;2.70;;;11.10;83.20;;;;;;5017732;28;20034;-70
2021/11/04 12:03:39;;;;;;;6.78;2.38;;;11.10;83.40;;;;;;5006405;28;20033;-71
2021/11/04 12:06:24;;;;;;;7.82;2.47;;;11.10;83.00;;;;;;5009484;28;20065;-70
2021/11/04 12:08:59;;;;;;;5.35;2.35;;;11.10;82.60;;;;;;5006079;28;20069;-70
2021/11/04 12:11:37;;;;;;;8.20;2.95;;;11.10;82.40;;;;;;5006418;28;20117;-70
2021/11/04 12:14:17;;;;;;;5.60;2.50;;;11.10;81.90;;;;;;5022479;28;20119;-71
2021/11/04 12:17:08;;;;;;;12.50;5.03;;;11.20;81.70;;;;;;5010147;28;20041;-73
2021/11/04 12:19:47;;;;;;;8.90;3.42;;;11.30;80.90;;;;;;4998965;28;20440;-73
2021/11/04 12:22:25;;;;;;;7.18;2.47;;;11.50;80.30;;;;;;5008172;28;20034;-70
2021/11/04 12:24:53;;;;;;;6.65;2.22;;;11.60;79.20;;;;;;5006208;28;20474;-70
2021/11/04 12:27:21;;;;;;;5.78;2.50;;;11.60;77.40;;;;;;5004502;28;20395;-71
2021/11/04 12:29:51;;;;;;;6.55;2.55;;;11.50;77.70;;;;;;5025135;28;20506;-72
2021/11/04 12:32:20;;;;;;;5.57;2.05;;;11.40;77.80;;;;;;5007285;28;20104;-70
2021/11/04 12:34:59;;;;;;;6.47;2.38;;;11.40;78.70;;;;;;5007278;28;20122;-70
2021/11/04 12:37:31;;;;;;;9.00;2.65;;;11.50;78.00;;;;;;5002959;28;20033;-70
2021/11/04 12:39:58;;;;;;;6.50;2.50;;;11.70;77.50;;;;;;5001682;28;20037;-71
2021/11/04 12:42:25;;;;;;;6.03;1.88;;;11.90;77.20;;;;;;5001862;28;20424;-70
2021/11/04 12:44:50;;;;;;;7.72;2.05;;;11.90;77.00;;;;;;5006454;28;20053;-72
2021/11/04 12:47:24;;;;;;;7.85;2.40;;;12.00;77.10;;;;;;5003646;28;20112;-71